Time;durP1;ratioP1;P1;durP2;ratioP2;P2;SDS_P1;SDS_P2;PMS_P1;PMS_P2;Temp;Humidity;BMP_temperature;BMP_pressure;BME280_temperature;BME280_humidity;BME280_pressure;Samples;Min_cycle;Max_cycle;Signal;HPM_P1;HPM_P2
2023/06/23 00:01:14;;;;;;;10.70;7.35;;;23.10;99.90;;;;;;5013896;28;20104;-76
2023/06/23 00:03:40;;;;;;;11.90;7.90;;;23.10;99.90;;;;;;5012401;28;20037;-77
2023/06/23 00:06:06;;;;;;;13.80;8.60;;;23.00;99.90;;;;;;5014047;28;20044;-77
2023/06/23 00:08:34;;;;;;;16.20;8.63;;;23.00;99.90;;;;;;5013057;28;20006;-77
2023/06/23 00:11:01;;;;;;;9.95;8.55;;;23.00;99.90;;;;;;5014551;28;20022;-77
2023/06/23 00:13:26;;;;;;;10.52;8.50;;;23.00;99.90;;;;;;5014706;28;20108;-76
2023/06/23 00:15:53;;;;;;;12.60;8.70;;;22.90;99.90;;;;;;5014242;28;20026;-77
2023/06/23 00:18:20;;;;;;;9.90;7.95;;;22.90;99.90;;;;;;5014523;28;20021;-77
2023/06/23 00:20:46;;;;;;;11.75;7.68;;;22.90;99.90;;;;;;5013989;28;20026;-76
2023/06/23 00:23:13;;;;;;;10.52;8.55;;;22.80;99.90;;;;;;5014614;28;20112;-77
2023/06/23 00:25:39;;;;;;;11.35;9.05;;;22.80;99.90;;;;;;5012946;28;20538;-77
2023/06/23 00:28:04;;;;;;;14.20;8.63;;;22.70;99.90;;;;;;5015982;28;20181;-76
2023/06/23 00:30:30;;;;;;;10.70;8.85;;;22.70;99.90;;;;;;5014236;28;20117;-76
2023/06/23 00:32:56;;;;;;;10.25;8.98;;;22.70;99.90;;;;;;5013298;28;20034;-76
2023/06/23 00:35:22;;;;;;;13.20;8.18;;;22.70;99.90;;;;;;5012426;28;20041;-76
2023/06/23 00:37:47;;;;;;;11.30;8.10;;;22.70;99.90;;;;;;5014141;28;20056;-76
2023/06/23 00:40:15;;;;;;;13.75;8.68;;;22.70;99.90;;;;;;5014095;28;20022;-77
2023/06/23 00:42:46;;;;;;;12.68;8.88;;;22.70;99.90;;;;;;5013812;28;20431;-76
2023/06/23 00:45:13;;;;;;;11.90;8.98;;;22.70;99.90;;;;;;5014083;28;20033;-76
2023/06/23 00:47:39;;;;;;;14.27;9.77;;;22.60;99.90;;;;;;5013911;28;20064;-77
2023/06/23 00:50:06;;;;;;;15.27;10.95;;;22.50;99.90;;;;;;5014489;28;20026;-77
2023/06/23 00:52:32;;;;;;;12.40;8.50;;;22.60;99.90;;;;;;5012494;28;20653;-77
2023/06/23 00:55:01;;;;;;;13.15;10.10;;;22.60;99.90;;;;;;5013926;28;20022;-77
2023/06/23 00:57:28;;;;;;;11.32;8.45;;;22.50;99.90;;;;;;5013757;28;20072;-76
2023/06/23 00:59:54;;;;;;;13.80;9.20;;;22.50;99.90;;;;;;5013989;28;20122;-76
2023/06/23 01:02:20;;;;;;;12.18;8.52;;;22.60;99.90;;;;;;5012305;28;20500;-77
2023/06/23 01:04:48;;;;;;;14.18;9.75;;;22.50;99.90;;;;;;5031408;28;20022;-75
2023/06/23 01:07:32;;;;;;;11.18;8.48;;;22.30;99.90;;;;;;5020339;28;20018;-75
2023/06/23 01:10:09;;;;;;;13.85;9.68;;;22.20;99.90;;;;;;5015477;28;20025;-77
2023/06/23 01:12:47;;;;;;;13.55;9.63;;;22.20;99.90;;;;;;5017139;28;20026;-77
2023/06/23 01:15:23;;;;;;;12.20;8.70;;;22.10;99.90;;;;;;5017510;28;20113;-77
2023/06/23 01:18:21;;;;;;;12.98;9.43;;;22.00;99.90;;;;;;5016254;28;20033;-77
2023/06/23 01:20:47;;;;;;;16.80;9.82;;;22.00;99.90;;;;;;5014525;28;20029;-76
2023/06/23 01:23:32;;;;;;;14.55;9.10;;;22.00;99.90;;;;;;5016663;28;20049;-76
2023/06/23 01:25:57;;;;;;;15.57;9.98;;;22.00;99.90;;;;;;5016590;28;20022;-75
2023/06/23 01:28:44;;;;;;;13.88;10.73;;;22.00;99.90;;;;;;5016400;28;20022;-76
2023/06/23 01:31:14;;;;;;;13.98;9.38;;;22.00;99.90;;;;;;5016266;28;20421;-77
2023/06/23 01:33:53;;;;;;;14.30;10.15;;;22.00;99.90;;;;;;5017674;28;20437;-77
2023/06/23 01:36:29;;;;;;;14.07;10.52;;;22.00;99.90;;;;;;5015774;28;20064;-76
2023/06/23 01:39:03;;;;;;;12.73;9.57;;;22.10;99.90;;;;;;5015763;28;20038;-77
2023/06/23 01:41:33;;;;;;;11.48;9.05;;;22.10;99.90;;;;;;5016274;28;20422;-77
2023/06/23 01:44:04;;;;;;;11.35;9.82;;;22.00;99.90;;;;;;5017202;28;20021;-77
2023/06/23 01:46:35;;;;;;;15.40;10.57;;;22.00;99.90;;;;;;5016534;28;20030;-76
2023/06/23 01:49:11;;;;;;;16.45;10.25;;;22.00;99.90;;;;;;5014572;28;20117;-77
2023/06/23 01:51:40;;;;;;;16.10;9.43;;;21.90;99.90;;;;;;5015605;28;20025;-77
2023/06/23 01:54:07;;;;;;;12.02;10.30;;;21.90;99.90;;;;;;5016108;28;20029;-76
2023/06/23 01:56:35;;;;;;;10.65;9.02;;;21.90;99.90;;;;;;5014615;28;20394;-77
2023/06/23 01:59:02;;;;;;;13.18;10.00;;;21.90;99.90;;;;;;5015148;28;20022;-77
2023/06/23 02:01:31;;;;;;;15.00;8.93;;;21.90;99.90;;;;;;5015265;28;20036;-77
2023/06/23 02:03:59;;;;;;;13.07;9.07;;;21.80;99.90;;;;;;5019010;28;20530;-77
2023/06/23 02:06:27;;;;;;;17.17;9.30;;;21.80;99.90;;;;;;5015874;28;20048;-77
2023/06/23 02:08:53;;;;;;;13.43;8.38;;;21.70;99.90;;;;;;5014602;28;20469;-76
2023/06/23 02:11:22;;;;;;;15.15;9.73;;;21.70;99.90;;;;;;5014069;28;20083;-77
2023/06/23 02:13:50;;;;;;;9.98;8.27;;;21.80;99.90;;;;;;5014240;28;20030;-77
2023/06/23 02:16:16;;;;;;;13.35;8.85;;;21.80;99.90;;;;;;5014540;28;20101;-77
2023/06/23 02:18:42;;;;;;;12.35;8.88;;;21.70;99.90;;;;;;5013972;28;20613;-76
2023/06/23 02:21:10;;;;;;;14.07;9.38;;;21.70;99.90;;;;;;5015340;28;20022;-77
2023/06/23 02:23:36;;;;;;;15.40;8.77;;;21.60;99.90;;;;;;5013676;28;20026;-77
2023/06/23 02:26:03;;;;;;;13.35;8.73;;;21.60;99.90;;;;;;5015543;28;20032;-77
2023/06/23 02:28:29;;;;;;;10.55;8.85;;;21.50;99.90;;;;;;5015299;28;20030;-77
2023/06/23 02:30:55;;;;;;;13.90;9.40;;;21.50;99.90;;;;;;5014481;28;20028;-77
2023/06/23 02:33:21;;;;;;;13.55;9.27;;;21.50;99.90;;;;;;5014797;28;20034;-76
2023/06/23 02:35:51;;;;;;;10.43;8.90;;;21.50;99.90;;;;;;5015366;28;20069;-76
2023/06/23 02:38:21;;;;;;;14.10;9.15;;;21.50;99.90;;;;;;5015313;28;20084;-76
2023/06/23 02:40:49;;;;;;;12.90;10.20;;;21.50;99.90;;;;;;5013339;28;20510;-77
2023/06/23 02:43:23;;;;;;;14.82;10.70;;;21.40;99.90;;;;;;5013403;28;20450;-76
2023/06/23 02:45:53;;;;;;;14.02;9.45;;;21.40;99.90;;;;;;5014328;28;20021;-76
2023/06/23 02:48:23;;;;;;;12.13;9.23;;;21.40;99.90;;;;;;5012563;28;20034;-76
2023/06/23 02:50:50;;;;;;;13.85;9.77;;;21.40;99.90;;;;;;5014273;28;20022;-76
2023/06/23 02:53:23;;;;;;;15.48;9.20;;;21.30;99.90;;;;;;5015889;28;20498;-76
2023/06/23 02:55:54;;;;;;;14.73;10.18;;;21.30;99.90;;;;;;5015197;28;20156;-76
2023/06/23 02:58:23;;;;;;;17.60;11.43;;;21.30;99.90;;;;;;5013804;28;20030;-76
2023/06/23 03:00:51;;;;;;;17.85;10.05;;;21.30;99.90;;;;;;5014059;28;20022;-77
2023/06/23 03:03:16;;;;;;;15.93;10.30;;;21.30;99.90;;;;;;5013397;28;20050;-77
2023/06/23 03:05:43;;;;;;;11.30;9.27;;;21.30;99.90;;;;;;5013241;28;20111;-76
2023/06/23 03:08:09;;;;;;;12.35;9.35;;;21.30;99.90;;;;;;5014790;28;20093;-76
2023/06/23 03:10:34;;;;;;;15.35;9.90;;;21.40;99.90;;;;;;5012565;28;20030;-77
2023/06/23 03:13:00;;;;;;;15.02;10.32;;;21.40;99.90;;;;;;5014741;28;20450;-76
2023/06/23 03:15:27;;;;;;;12.05;10.00;;;21.40;99.90;;;;;;5014559;28;20022;-77
2023/06/23 03:17:59;;;;;;;12.18;9.30;;;21.40;99.90;;;;;;5014380;28;20486;-77
2023/06/23 03:20:32;;;;;;;12.60;9.60;;;21.30;99.90;;;;;;5013282;28;20044;-76
2023/06/23 03:23:03;;;;;;;16.30;10.68;;;21.30;99.90;;;;;;5014358;28;20022;-76
2023/06/23 03:25:28;;;;;;;19.30;11.25;;;21.30;99.90;;;;;;5012967;28;20490;-76
2023/06/23 03:27:57;;;;;;;18.58;9.52;;;21.30;99.90;;;;;;5013991;28;20061;-77
2023/06/23 03:30:41;;;;;;;14.73;10.35;;;21.30;99.90;;;;;;5013796;28;20026;-76
2023/06/23 03:33:32;;;;;;;17.38;11.23;;;21.30;99.90;;;;;;5013978;28;20033;-77
2023/06/23 03:36:05;;;;;;;14.80;9.35;;;21.20;99.90;;;;;;5012783;28;20030;-76
2023/06/23 03:38:35;;;;;;;14.73;10.75;;;21.20;99.90;;;;;;5013321;28;20049;-76
2023/06/23 03:41:05;;;;;;;13.52;11.90;;;21.30;99.90;;;;;;5013957;28;20041;-76
2023/06/23 03:43:36;;;;;;;11.77;9.15;;;21.50;99.90;;;;;;5013244;28;20026;-76
2023/06/23 03:46:06;;;;;;;15.80;9.63;;;21.60;99.90;;;;;;5014646;28;20474;-75
2023/06/23 03:48:36;;;;;;;15.75;10.55;;;21.60;99.90;;;;;;5012984;28;20498;-76
2023/06/23 03:51:03;;;;;;;18.40;9.88;;;21.60;99.90;;;;;;5013804;28;20030;-76
2023/06/23 03:53:32;;;;;;;12.98;10.00;;;21.80;99.90;;;;;;5014464;28;20021;-76
2023/06/23 03:56:00;;;;;;;13.85;10.05;;;21.80;99.90;;;;;;5013041;28;20026;-76
2023/06/23 03:58:29;;;;;;;16.48;10.57;;;21.80;99.90;;;;;;5013142;28;20105;-76
2023/06/23 04:00:56;;;;;;;16.75;11.55;;;21.80;99.90;;;;;;5013079;28;20018;-77
2023/06/23 04:03:23;;;;;;;16.25;11.10;;;21.90;99.90;;;;;;5011835;28;20029;-76
2023/06/23 04:05:51;;;;;;;14.48;10.10;;;21.90;99.90;;;;;;5014156;28;20080;-76
2023/06/23 04:08:19;;;;;;;13.63;10.82;;;21.90;99.90;;;;;;5014169;28;20033;-76
2023/06/23 04:10:47;;;;;;;14.43;11.35;;;21.90;99.90;;;;;;5016071;28;20022;-77
2023/06/23 04:13:14;;;;;;;11.75;9.52;;;22.00;99.90;;;;;;5014857;28;20391;-75
2023/06/23 04:15:40;;;;;;;14.32;11.15;;;21.90;99.90;;;;;;5015273;28;20026;-76
2023/06/23 04:18:10;;;;;;;14.25;10.32;;;21.90;99.90;;;;;;5014332;28;20112;-76
2023/06/23 04:20:38;;;;;;;16.60;10.70;;;21.90;99.90;;;;;;5014424;28;20030;-76
2023/06/23 04:23:05;;;;;;;10.55;9.07;;;21.90;99.90;;;;;;5015259;28;20507;-77
2023/06/23 04:25:31;;;;;;;14.68;10.20;;;22.00;99.90;;;;;;5013318;28;20025;-76
2023/06/23 04:28:00;;;;;;;13.82;10.82;;;21.90;99.90;;;;;;5013090;28;20033;-76
2023/06/23 04:30:29;;;;;;;19.33;11.80;;;22.00;99.90;;;;;;5012075;28;20391;-76
2023/06/23 04:32:55;;;;;;;14.48;10.25;;;22.00;99.90;;;;;;5012400;28;20506;-76
2023/06/23 04:35:21;;;;;;;16.20;10.40;;;22.00;99.90;;;;;;5014568;28;20088;-76
2023/06/23 04:38:00;;;;;;;17.70;11.38;;;22.00;99.90;;;;;;5013436;28;20034;-77
2023/06/23 04:40:25;;;;;;;15.95;11.50;;;21.90;99.90;;;;;;5011869;28;20483;-76
2023/06/23 04:42:55;;;;;;;20.27;12.02;;;22.00;99.90;;;;;;5015882;28;20030;-77
2023/06/23 04:45:25;;;;;;;22.42;11.18;;;22.10;99.90;;;;;;5016713;28;20041;-76
2023/06/23 04:48:00;;;;;;;16.20;11.15;;;22.20;99.90;;;;;;5017145;28;20438;-76
2023/06/23 04:50:28;;;;;;;;;;;22.30;99.90;;;;;;5017171;28;20467;-76
2023/06/23 04:53:00;;;;;;;14.35;10.40;;;22.40;99.90;;;;;;5017745;28;19910;-76
2023/06/23 04:55:30;;;;;;;15.52;11.00;;;22.50;99.90;;;;;;5015201;28;20018;-77
2023/06/23 04:57:58;;;;;;;19.13;12.75;;;22.70;99.90;;;;;;5016456;28;20056;-75
2023/06/23 05:00:25;;;;;;;14.50;11.15;;;22.70;99.90;;;;;;5015208;28;20034;-75
2023/06/23 05:02:55;;;;;;;12.73;10.77;;;23.00;99.90;;;;;;5016748;28;20114;-77
2023/06/23 05:05:24;;;;;;;20.02;12.85;;;23.30;99.90;;;;;;5016218;28;20025;-76
2023/06/23 05:07:52;;;;;;;17.05;11.70;;;23.60;99.90;;;;;;5017541;28;20120;-76
2023/06/23 05:10:21;;;;;;;18.73;11.95;;;23.90;99.90;;;;;;5015596;28;20029;-76
2023/06/23 05:12:49;;;;;;;15.55;11.18;;;23.90;99.90;;;;;;5016797;28;20060;-76
2023/06/23 05:15:17;;;;;;;16.55;11.00;;;24.10;99.90;;;;;;5016535;28;20563;-76
2023/06/23 05:17:45;;;;;;;13.32;11.40;;;24.40;99.90;;;;;;5016488;28;20022;-76
2023/06/23 05:20:12;;;;;;;14.93;11.68;;;24.50;99.90;;;;;;5016598;28;20022;-76
2023/06/23 05:22:39;;;;;;;12.43;10.27;;;24.50;99.90;;;;;;5016358;28;20026;-76
2023/06/23 05:25:06;;;;;;;17.83;11.07;;;24.70;99.90;;;;;;5016239;28;20018;-76
2023/06/23 05:27:34;;;;;;;17.70;11.95;;;24.70;99.90;;;;;;5014640;28;20098;-78
2023/06/23 05:30:03;;;;;;;13.57;10.02;;;24.80;99.90;;;;;;5014770;28;20030;-76
2023/06/23 05:32:32;;;;;;;17.17;11.82;;;24.80;99.90;;;;;;5015913;28;20026;-76
2023/06/23 05:35:04;;;;;;;19.13;11.48;;;24.90;99.90;;;;;;5015621;28;20105;-76
2023/06/23 05:37:33;;;;;;;14.95;10.90;;;25.00;99.90;;;;;;5015774;28;20095;-77
2023/06/23 05:40:03;;;;;;;18.20;10.25;;;25.20;99.90;;;;;;5014497;28;20033;-75
2023/06/23 05:42:32;;;;;;;13.75;9.98;;;25.30;99.90;;;;;;5015729;28;20038;-76
2023/06/23 05:44:59;;;;;;;13.30;10.38;;;25.50;99.90;;;;;;5014635;28;20022;-77
2023/06/23 05:47:41;;;;;;;16.55;8.73;;;25.80;99.90;;;;;;5015741;28;20022;-76
2023/06/23 05:50:34;;;;;;;14.50;9.57;;;25.90;99.90;;;;;;5015689;28;20026;-76
2023/06/23 05:53:03;;;;;;;15.82;8.65;;;25.90;99.90;;;;;;5009299;28;20557;-76
2023/06/23 05:55:32;;;;;;;10.88;9.05;;;26.10;99.90;;;;;;5014913;28;20022;-76
2023/06/23 05:58:02;;;;;;;14.07;8.98;;;26.30;99.90;;;;;;5015031;28;20108;-75
2023/06/23 06:00:32;;;;;;;15.40;8.85;;;26.50;99.90;;;;;;5015239;28;20026;-76
2023/06/23 06:03:02;;;;;;;22.60;10.27;;;26.60;99.90;;;;;;5013591;28;20120;-76
2023/06/23 06:05:28;;;;;;;11.82;8.77;;;26.80;99.90;;;;;;5013786;28;20026;-76
2023/06/23 06:07:57;;;;;;;11.30;9.32;;;26.90;99.90;;;;;;5014673;28;20108;-75
2023/06/23 06:10:26;;;;;;;13.20;9.57;;;27.20;99.90;;;;;;5015224;28;20014;-76
2023/06/23 06:12:54;;;;;;;14.18;10.15;;;27.20;99.90;;;;;;5015393;28;20018;-77
2023/06/23 06:15:21;;;;;;;14.57;10.52;;;27.20;99.90;;;;;;5014062;28;20127;-75
2023/06/23 06:17:48;;;;;;;14.00;8.88;;;27.30;99.90;;;;;;5015032;28;20025;-76
2023/06/23 06:20:15;;;;;;;15.27;10.15;;;27.50;99.90;;;;;;5014144;28;20179;-77
2023/06/23 06:22:44;;;;;;;16.10;9.70;;;27.40;99.90;;;;;;5015249;28;20482;-77
2023/06/23 06:25:12;;;;;;;16.40;10.00;;;27.40;99.90;;;;;;5016166;28;20414;-75
2023/06/23 06:27:41;;;;;;;17.65;10.13;;;27.50;99.90;;;;;;5014511;28;20608;-76
2023/06/23 06:30:07;;;;;;;13.95;10.10;;;27.50;99.90;;;;;;5013540;28;20076;-75
2023/06/23 06:32:37;;;;;;;14.25;10.05;;;27.60;99.90;;;;;;5013410;28;20104;-76
2023/06/23 06:35:08;;;;;;;19.42;10.07;;;27.60;99.90;;;;;;5013550;28;20030;-77
2023/06/23 06:37:37;;;;;;;13.18;9.25;;;27.70;99.90;;;;;;5013861;28;20048;-75
2023/06/23 06:40:06;;;;;;;18.25;10.10;;;27.90;99.90;;;;;;5014675;28;20092;-76
2023/06/23 06:42:32;;;;;;;11.48;9.10;;;28.00;99.90;;;;;;5014133;28;20021;-76
2023/06/23 06:44:58;;;;;;;13.60;7.95;;;27.90;99.90;;;;;;5014411;28;20088;-76
2023/06/23 06:47:25;;;;;;;11.98;9.20;;;28.20;99.90;;;;;;5014481;28;20022;-76
2023/06/23 06:49:52;;;;;;;15.40;9.95;;;28.20;99.90;;;;;;5014784;28;20078;-76
2023/06/23 06:52:20;;;;;;;10.43;7.60;;;28.20;99.90;;;;;;5014153;28;20037;-77
2023/06/23 06:54:45;;;;;;;12.80;7.80;;;28.20;99.90;;;;;;5012678;28;20026;-75
2023/06/23 06:57:11;;;;;;;9.60;7.22;;;28.10;99.90;;;;;;5012258;28;20029;-75
2023/06/23 06:59:37;;;;;;;8.65;7.13;;;28.30;99.90;;;;;;5014581;28;20083;-75
2023/06/23 07:02:05;;;;;;;12.13;7.10;;;28.50;99.90;;;;;;5013074;28;20097;-76
2023/06/23 07:04:31;;;;;;;16.85;8.48;;;28.50;98.80;;;;;;5013181;28;20022;-77
2023/06/23 07:06:57;;;;;;;16.88;5.53;;;28.60;98.20;;;;;;5012794;28;20034;-76
2023/06/23 07:09:22;;;;;;;11.57;6.90;;;28.80;96.40;;;;;;5014039;28;20072;-76
2023/06/23 07:11:49;;;;;;;16.15;6.53;;;29.00;97.80;;;;;;5014125;28;20062;-75
2023/06/23 07:14:15;;;;;;;10.93;7.57;;;29.20;97.60;;;;;;5014446;28;20537;-77
2023/06/23 07:16:40;;;;;;;9.80;6.90;;;29.30;97.00;;;;;;5012162;28;20030;-76
2023/06/23 07:19:06;;;;;;;12.63;7.32;;;29.50;96.80;;;;;;5012530;28;20026;-75
2023/06/23 07:21:32;;;;;;;10.55;7.63;;;29.60;96.70;;;;;;5012561;28;20026;-76
2023/06/23 07:23:58;;;;;;;10.48;7.38;;;29.60;96.10;;;;;;5014512;28;20041;-77
2023/06/23 07:26:24;;;;;;;12.95;7.68;;;29.60;96.40;;;;;;5013864;28;20013;-76
2023/06/23 07:28:49;;;;;;;14.32;7.15;;;29.60;96.70;;;;;;5014631;28;20025;-77
2023/06/23 07:31:15;;;;;;;10.00;5.65;;;29.70;95.20;;;;;;5012125;28;20025;-75
2023/06/23 07:33:43;;;;;;;9.02;6.65;;;29.80;93.70;;;;;;5016622;28;20053;-76
2023/06/23 07:36:09;;;;;;;9.90;6.00;;;29.80;92.50;;;;;;5015651;28;20030;-77
2023/06/23 07:38:34;;;;;;;8.88;5.28;;;29.90;91.70;;;;;;5014965;28;20025;-74
2023/06/23 07:41:00;;;;;;;11.45;4.63;;;29.90;89.20;;;;;;5014215;28;20153;-76
2023/06/23 07:43:26;;;;;;;11.48;4.68;;;29.90;86.50;;;;;;5012874;28;20029;-77
2023/06/23 07:45:51;;;;;;;9.95;4.78;;;30.00;90.60;;;;;;5014607;28;20479;-76
2023/06/23 07:48:17;;;;;;;10.35;4.80;;;30.20;90.40;;;;;;5012939;28;20033;-77
2023/06/23 07:50:43;;;;;;;7.22;4.40;;;30.30;88.80;;;;;;5012749;28;20030;-75
2023/06/23 07:53:09;;;;;;;11.18;5.40;;;30.20;86.20;;;;;;5013714;28;20026;-75
2023/06/23 07:55:35;;;;;;;8.73;4.03;;;30.50;88.20;;;;;;5013823;28;20446;-74
2023/06/23 07:58:01;;;;;;;12.60;4.90;;;30.60;84.20;;;;;;5013946;28;20036;-76
2023/06/23 08:00:27;;;;;;;10.70;4.75;;;30.80;82.60;;;;;;5013971;28;20041;-75
2023/06/23 08:02:53;;;;;;;8.40;5.00;;;30.80;80.20;;;;;;5014098;28;20029;-74
2023/06/23 08:05:19;;;;;;;7.10;4.57;;;30.80;83.60;;;;;;5013113;28;20034;-81
2023/06/23 08:07:45;;;;;;;9.23;4.53;;;30.80;84.60;;;;;;5011940;28;20030;-76
2023/06/23 08:10:11;;;;;;;12.68;7.15;;;30.80;81.90;;;;;;5012590;28;20048;-78
2023/06/23 08:12:37;;;;;;;9.57;5.05;;;30.90;82.60;;;;;;5012784;28;20021;-76
2023/06/23 08:15:04;;;;;;;6.97;4.90;;;30.90;82.20;;;;;;5015281;28;20018;-76
2023/06/23 08:17:30;;;;;;;6.55;5.45;;;31.00;81.00;;;;;;5013345;28;20024;-77
2023/06/23 08:19:55;;;;;;;6.28;4.72;;;30.90;78.70;;;;;;5014268;28;20461;-76
2023/06/23 08:22:21;;;;;;;7.05;4.13;;;31.10;79.90;;;;;;5015550;28;20518;-77
2023/06/23 08:24:47;;;;;;;7.28;5.05;;;31.10;79.10;;;;;;5015533;28;20018;-78
2023/06/23 08:27:12;;;;;;;6.70;3.92;;;31.20;80.00;;;;;;5012782;28;20025;-77
2023/06/23 08:29:39;;;;;;;7.78;6.38;;;31.50;80.40;;;;;;5014370;28;20429;-75
2023/06/23 08:32:05;;;;;;;7.70;4.55;;;31.60;76.70;;;;;;5014510;28;20026;-77
2023/06/23 08:34:31;;;;;;;8.95;3.95;;;31.60;76.70;;;;;;5015948;28;20037;-76
2023/06/23 08:36:57;;;;;;;6.07;3.88;;;31.60;76.70;;;;;;5012836;28;20030;-76
2023/06/23 08:39:22;;;;;;;6.18;4.88;;;31.70;76.70;;;;;;5012746;28;20026;-78
2023/06/23 08:41:50;;;;;;;12.50;4.20;;;31.90;76.40;;;;;;5013798;28;20026;-76
2023/06/23 08:44:17;;;;;;;9.18;4.35;;;32.20;76.60;;;;;;5013081;28;20026;-77
2023/06/23 08:46:43;;;;;;;10.90;4.60;;;32.20;73.90;;;;;;5012839;28;20045;-77
2023/06/23 08:49:18;;;;;;;8.30;5.15;;;32.30;74.60;;;;;;5013467;28;20514;-76
2023/06/23 08:51:43;;;;;;;10.05;4.22;;;32.20;72.20;;;;;;5014037;28;20475;-77
2023/06/23 08:54:09;;;;;;;9.10;5.03;;;32.30;72.70;;;;;;5013719;28;20026;-77
2023/06/23 08:56:35;;;;;;;8.10;4.80;;;32.30;71.70;;;;;;5011937;28;20050;-77
2023/06/23 08:59:01;;;;;;;12.35;4.40;;;32.20;72.60;;;;;;5012995;28;20068;-77
2023/06/23 09:01:27;;;;;;;10.13;5.38;;;32.40;72.90;;;;;;5012100;28;20026;-77
2023/06/23 09:03:52;;;;;;;15.50;5.03;;;32.30;72.30;;;;;;5013273;28;20022;-76
2023/06/23 09:06:18;;;;;;;11.70;4.75;;;32.40;71.90;;;;;;5013599;28;20033;-78
2023/06/23 09:08:44;;;;;;;12.00;4.47;;;32.40;72.60;;;;;;5014539;28;20026;-78
2023/06/23 09:11:09;;;;;;;9.63;4.80;;;32.50;73.90;;;;;;5014419;28;20441;-76
2023/06/23 09:13:36;;;;;;;10.30;4.45;;;32.80;70.80;;;;;;5013913;28;20038;-78
2023/06/23 09:16:03;;;;;;;6.50;4.20;;;33.00;70.40;;;;;;5014044;28;20029;-78
2023/06/23 09:18:40;;;;;;;6.25;4.05;;;32.80;70.30;;;;;;5013287;28;20403;-77
2023/06/23 09:21:07;;;;;;;9.07;4.22;;;32.60;70.20;;;;;;5013209;28;20103;-77
2023/06/23 09:23:33;;;;;;;12.60;4.25;;;32.60;71.10;;;;;;5011143;28;20022;-76
2023/06/23 09:26:03;;;;;;;10.07;4.43;;;32.50;70.60;;;;;;5013045;28;20113;-77
2023/06/23 09:28:36;;;;;;;10.48;3.85;;;32.30;71.60;;;;;;5013553;28;20041;-77
2023/06/23 09:31:16;;;;;;;6.30;4.35;;;32.00;72.10;;;;;;5016543;28;20028;-75
2023/06/23 09:33:45;;;;;;;9.05;5.07;;;31.90;73.00;;;;;;5017273;28;20513;-74
2023/06/23 09:36:11;;;;;;;5.90;4.72;;;31.90;73.70;;;;;;5015801;28;20037;-76
2023/06/23 09:38:38;;;;;;;11.98;4.85;;;32.20;72.90;;;;;;5016740;28;20026;-76
2023/06/23 09:41:33;;;;;;;7.90;4.80;;;32.20;72.80;;;;;;5015591;28;20025;-77
2023/06/23 09:43:59;;;;;;;8.88;4.47;;;32.20;72.90;;;;;;5015061;28;20034;-75
2023/06/23 09:46:27;;;;;;;10.25;4.53;;;32.40;73.40;;;;;;5016393;28;20076;-75
2023/06/23 09:48:54;;;;;;;5.10;4.13;;;32.30;71.30;;;;;;5016235;28;20375;-75
2023/06/23 09:51:20;;;;;;;8.13;4.63;;;32.40;70.70;;;;;;5016540;28;20033;-75
2023/06/23 09:53:47;;;;;;;8.25;4.47;;;32.40;71.50;;;;;;5015330;28;20113;-76
2023/06/23 09:56:18;;;;;;;10.00;4.85;;;32.50;70.20;;;;;;5015930;28;20536;-77
2023/06/23 09:58:47;;;;;;;9.15;4.20;;;32.30;70.50;;;;;;5016280;28;20041;-77
2023/06/23 10:01:15;;;;;;;7.35;4.80;;;32.20;70.00;;;;;;5015225;28;20042;-77
2023/06/23 10:03:52;;;;;;;7.60;4.40;;;32.50;70.20;;;;;;5016740;28;20430;-76
2023/06/23 10:06:28;;;;;;;13.68;4.60;;;32.30;69.40;;;;;;5015678;28;20030;-76
2023/06/23 10:08:55;;;;;;;10.05;3.95;;;32.10;70.30;;;;;;5015665;28;20057;-76
2023/06/23 10:11:35;;;;;;;10.32;5.82;;;32.40;73.00;;;;;;5019562;28;20022;-77
2023/06/23 10:14:05;;;;;;;7.78;4.45;;;32.50;69.20;;;;;;5014868;28;20022;-76
2023/06/23 10:16:33;;;;;;;7.88;4.72;;;32.50;69.50;;;;;;5016198;28;20105;-78
2023/06/23 10:18:59;;;;;;;14.02;5.03;;;32.60;69.40;;;;;;5015462;28;20040;-76
2023/06/23 10:21:25;;;;;;;8.20;5.93;;;32.70;70.50;;;;;;5019728;28;20024;-75
2023/06/23 10:23:56;;;;;;;8.20;4.30;;;32.80;70.00;;;;;;5021573;28;20073;-75
2023/06/23 10:26:22;;;;;;;8.55;4.03;;;32.80;68.10;;;;;;5021595;28;20113;-75
2023/06/23 10:28:50;;;;;;;11.05;4.78;;;32.60;68.30;;;;;;5023880;28;20030;-76
2023/06/23 10:31:17;;;;;;;14.50;4.40;;;32.90;69.90;;;;;;5028647;28;20514;-77
2023/06/23 10:33:45;;;;;;;8.35;4.22;;;33.00;69.60;;;;;;5026580;28;20048;-77
2023/06/23 10:36:16;;;;;;;12.77;5.10;;;32.90;70.30;;;;;;5028600;28;20073;-77
2023/06/23 10:38:46;;;;;;;11.73;4.28;;;32.90;71.30;;;;;;5025940;28;20026;-76
2023/06/23 10:41:13;;;;;;;10.02;3.80;;;33.10;70.70;;;;;;5015272;28;20085;-77
2023/06/23 10:43:44;;;;;;;7.93;4.50;;;33.30;70.40;;;;;;5014360;28;20367;-76
2023/06/23 10:46:10;;;;;;;11.90;4.55;;;33.10;69.40;;;;;;5012547;28;20121;-75
2023/06/23 10:48:36;;;;;;;8.63;4.57;;;33.20;70.30;;;;;;5014453;28;20018;-76
2023/06/23 10:51:03;;;;;;;8.45;4.03;;;33.20;72.40;;;;;;5014444;28;20092;-76
2023/06/23 10:53:32;;;;;;;7.55;4.30;;;33.30;69.40;;;;;;5014060;28;20030;-76
2023/06/23 10:55:58;;;;;;;7.40;4.18;;;33.20;68.20;;;;;;5012671;28;20053;-74
2023/06/23 10:58:25;;;;;;;8.15;4.78;;;33.10;67.20;;;;;;5013543;28;20379;-76
2023/06/23 11:00:53;;;;;;;7.60;4.25;;;32.90;67.90;;;;;;5013925;28;20030;-77
2023/06/23 11:03:32;;;;;;;10.43;3.60;;;33.10;68.80;;;;;;5014020;28;20101;-77
2023/06/23 11:06:06;;;;;;;4.40;3.60;;;33.10;67.90;;;;;;5013426;28;20053;-76
2023/06/23 11:08:37;;;;;;;7.55;3.55;;;33.00;68.10;;;;;;5014592;28;20030;-76
2023/06/23 11:11:04;;;;;;;6.93;3.60;;;32.60;69.30;;;;;;5013156;28;20034;-77
2023/06/23 11:13:49;;;;;;;5.97;2.80;;;32.60;71.30;;;;;;5014844;28;20483;-77
2023/06/23 11:16:34;;;;;;;8.32;3.70;;;32.50;68.70;;;;;;5014863;28;20013;-76
2023/06/23 11:19:02;;;;;;;6.93;3.30;;;32.50;67.80;;;;;;5014281;28;20029;-74
2023/06/23 11:21:53;;;;;;;5.88;3.50;;;32.60;68.80;;;;;;5013891;28;20013;-75
2023/06/23 11:24:20;;;;;;;3.58;2.50;;;32.70;70.00;;;;;;5012000;28;20078;-76
2023/06/23 11:26:49;;;;;;;5.90;2.60;;;32.90;69.30;;;;;;5016284;28;20368;-76
2023/06/23 11:29:21;;;;;;;10.30;3.33;;;32.50;69.60;;;;;;5013636;28;20033;-75
2023/06/23 11:32:07;;;;;;;8.88;3.10;;;32.50;68.80;;;;;;5016393;28;20026;-77
2023/06/23 11:34:57;;;;;;;5.65;3.00;;;32.50;67.90;;;;;;5016674;28;20009;-76
2023/06/23 11:37:27;;;;;;;4.97;2.90;;;32.60;67.60;;;;;;5014569;28;20034;-75
2023/06/23 11:39:54;;;;;;;3.83;2.17;;;32.50;67.70;;;;;;5014880;28;20387;-77
2023/06/23 11:42:21;;;;;;;8.50;2.60;;;32.40;68.10;;;;;;5014047;28;20022;-77
2023/06/23 11:44:48;;;;;;;7.75;2.22;;;32.60;67.50;;;;;;5014394;28;20018;-77
2023/06/23 11:47:14;;;;;;;8.07;3.17;;;32.70;68.20;;;;;;5013267;28;20394;-77
2023/06/23 11:49:39;;;;;;;8.07;2.58;;;32.60;66.20;;;;;;5012999;28;20030;-76
2023/06/23 11:52:06;;;;;;;3.90;2.03;;;32.60;67.60;;;;;;5011582;28;20483;-75
2023/06/23 11:54:35;;;;;;;2.60;1.90;;;32.80;68.10;;;;;;5013350;28;20101;-76
2023/06/23 11:57:02;;;;;;;7.65;2.10;;;32.50;67.40;;;;;;5013201;28;20554;-76
2023/06/23 11:59:34;;;;;;;2.63;1.95;;;32.60;67.20;;;;;;5013385;28;20022;-75
2023/06/23 12:02:00;;;;;;;5.93;1.90;;;32.70;67.00;;;;;;5013459;28;20053;-76
2023/06/23 12:04:25;;;;;;;8.50;1.60;;;32.70;67.30;;;;;;5013677;28;20043;-75
2023/06/23 12:06:52;;;;;;;3.65;1.83;;;32.70;67.50;;;;;;5039553;23;20077;-79
2023/06/23 12:09:20;;;;;;;2.95;1.77;;;32.60;67.10;;;;;;5022851;28;20399;-79
2023/06/23 12:11:50;;;;;;;4.82;1.98;;;32.80;66.30;;;;;;5023645;28;20100;-79
2023/06/23 12:14:16;;;;;;;6.68;1.90;;;32.70;66.30;;;;;;5021901;28;20030;-80
2023/06/23 12:16:41;;;;;;;8.40;2.35;;;32.60;65.20;;;;;;5023019;28;20037;-80
2023/06/23 12:19:07;;;;;;;9.23;3.00;;;32.30;65.90;;;;;;5022645;28;20026;-78
2023/06/23 12:21:36;;;;;;;5.43;1.83;;;32.00;66.20;;;;;;5023033;28;20033;-80
2023/06/23 12:24:01;;;;;;;7.20;1.85;;;31.70;67.80;;;;;;5023463;28;20101;-79
2023/06/23 12:26:27;;;;;;;3.50;1.77;;;31.30;67.60;;;;;;5022897;28;20465;-81
2023/06/23 12:29:08;;;;;;;2.70;1.60;;;31.10;68.20;;;;;;5024420;28;20036;-80
2023/06/23 12:31:33;;;;;;;3.22;1.65;;;30.60;68.70;;;;;;5024294;28;20395;-78
2023/06/23 12:34:01;;;;;;;5.72;1.10;;;30.50;70.30;;;;;;5026214;28;20061;-80
2023/06/23 12:36:27;;;;;;;0.52;0.38;;;29.40;62.30;;;;;;5023759;28;20026;-79
2023/06/23 12:38:56;;;;;;;2.20;0.30;;;27.30;65.40;;;;;;5023578;28;20060;-79
2023/06/23 12:41:24;;;;;;;0.73;0.28;;;26.20;67.40;;;;;;5026298;28;20033;-79
2023/06/23 12:43:53;;;;;;;1.50;0.40;;;25.50;69.30;;;;;;5025599;28;20048;-79
2023/06/23 12:46:23;;;;;;;1.77;0.40;;;24.80;70.80;;;;;;5024541;28;20018;-78